HESH

Sharm el-Sheikh International Airport

Airport
ICAO code
HESH
IATA Code
SSH
Summary
ICAO Region
AFI
ICAO Territory
Location

Sharm El Sheikh, Janub Sina'

Serving
Sharm El Sheikh
Elevation
143 ft
Coordinates
27° 58' 43" N , 34° 23' 36" E
KCC
Metar
Observation
HESH 281000Z 11005KT CAVOK 27/15 Q1010 NOSIG
Station
Sharm El Sheikhintl
Date/Time
2022-11-28 10:00:00
Wind direction
110°
Wind speed
05 kts
Lowest cloud amount
clouds and visibility OK
Temperature
27°C
Dew point
15°C
Humidity
47%
QNH
1010 hPa
Weather condition
n/a

Description

International airport serving the Red Sea resort of Sharm El Sheikh.

Climatology

Hot Desert Climate (Köppen climate classification BWh) - Hot desert climates are typically found in the subtropics where there is unbroken sunshine for the whole year due to the stable descending air and high pressure, little or no precipitation. Maximum temperatures of 40°C to 45°C are not uncommon, particularly during the warmer months of the year. During colder periods of the year, night-time temperatures can drop to freezing or below due to the exceptional radiation loss under the clear skies. However, very rarely do temperatures drop far below freezing.

Runways

Designator Length Width Surface Rops
04L/22R 3081 45 ASP Yes/Yes
04R/22L 3081 45 ASP Yes/Yes

Airport map

Aerial View

SKYbrary Partners:

Safety knowledge contributed by: